Fountain, Florida
Current Conditions -  °F | °C
As of 6:53 PM on Sunday 21 Dec 2014 (Local Time) from KECP Reporting Station
Light Rain Light Rain  
Wind Chill: 56°   Ceiling: 200
Heat Index: 56°   Visibility: 1mi
Dew Point: 54°   Wind: 3mph
Humidity: 93%   Direction: 350°N
Pressure: 30.04"   Gusts: NA
Location:  30.48°N, 85.42°W
Report Text: KECP 220053Z 35003KT 1SM -RA BR OVC002 13/12 A3004 RMK AO2 SLP183 P0000 T01330122 $
Loading
Personal Weather Stations






























Interactive Weather Map New forecast layout! Learn more

10-Day Weather Forecast

Advertisements
Track Severe Weather on mobile